KDLN/DLN METAR and TAF weather

Enter ICAO airport designator
Station Type Date Time Source
KDLN METAR 2021/09/23 17:53 UTC NOAA

KDLN 231753Z AUTO 08003KT 10SM CLR 15/00 A3026 RMK AO2 SLP210 T01500000 10150 20072 50003


Station Type Date Time Source
KDLN Decoded METAR 2021/09/23 17:53 UTC NOAA

DILLON AIRPORT, MT, United States (KDLN) 45-15N 112-33W 1591M
Sep 23, 2021 - 01:53 PM EDT / 2021.09.23 1753 UTC
Wind: from the E (080 degrees) at 3 MPH (3 KT):0
Visibility: 10 mile(s):0
Sky conditions: clear
Temperature: 59.0 F (15.0 C)
Dew Point: 32.0 F (0.0 C)
Relative Humidity: 35%
Pressure (altimeter): 30.26 in. Hg (1024 hPa)
Pressure tendency: 0.01 inches (0.3 hPa) higher than three hours ago
ob: KDLN 231753Z AUTO 08003KT 10SM CLR 15/00 A3026 RMK AO2 SLP210 T01500000 10150 20072 50003
cycle: 18

Station Type Date Time Source
KDLN TAF UTC NOAA

Error!

Example: see airport list